Time;durP1;ratioP1;P1;durP2;ratioP2;P2;SDS_P1;SDS_P2;PMS_P1;PMS_P2;Temp;Humidity;BMP_temperature;BMP_pressure;BME280_temperature;BME280_humidity;BME280_pressure;Samples;Min_cycle;Max_cycle;Signal;HPM_P1;HPM_P2
2021/01/31 00:01:20;;;;;;;11.90;8.20;;;-0.50;99.90;;;;;;4935344;28;20411;-74
2021/01/31 00:04:11;;;;;;;11.00;8.00;;;-0.50;99.90;;;;;;4944684;28;20260;-74
2021/01/31 00:06:37;;;;;;;13.83;9.70;;;-0.60;99.90;;;;;;4920170;29;20645;-74
2021/01/31 00:09:03;;;;;;;12.57;8.73;;;-0.50;99.90;;;;;;4862155;29;20498;-75
2021/01/31 00:11:29;;;;;;;13.77;8.87;;;-0.60;99.90;;;;;;4883428;29;20287;-75
2021/01/31 00:13:56;;;;;;;11.63;9.13;;;-0.60;99.90;;;;;;4890050;29;20242;-75
2021/01/31 00:16:23;;;;;;;13.40;9.30;;;-0.60;99.90;;;;;;4902566;29;20453;-75
2021/01/31 00:18:49;;;;;;;12.87;9.20;;;-0.70;99.90;;;;;;4885008;29;20585;-75
2021/01/31 00:21:16;;;;;;;11.37;8.47;;;-0.70;99.90;;;;;;4885481;29;20931;-75
2021/01/31 00:23:42;;;;;;;11.73;9.20;;;-0.70;99.90;;;;;;4917630;29;20418;-75
2021/01/31 00:26:09;;;;;;;15.50;9.40;;;-0.70;99.90;;;;;;4896597;29;20849;-74
2021/01/31 00:28:35;;;;;;;12.63;8.67;;;-0.70;99.90;;;;;;4927188;28;20272;-75
2021/01/31 00:31:27;;;;;;;11.13;8.63;;;-0.70;99.90;;;;;;4956240;28;20425;-75
2021/01/31 00:33:53;;;;;;;13.50;8.90;;;-0.70;99.90;;;;;;4923736;29;20515;-75
2021/01/31 00:36:19;;;;;;;11.87;10.47;;;-0.70;99.90;;;;;;4869296;29;20469;-75
2021/01/31 00:38:44;;;;;;;12.17;8.80;;;-0.80;99.90;;;;;;4919872;29;20396;-75
2021/01/31 00:41:10;;;;;;;15.23;11.03;;;-0.90;99.90;;;;;;4916645;29;20226;-75
2021/01/31 00:43:36;;;;;;;12.90;8.50;;;-1.00;99.90;;;;;;4918491;28;20227;-75
2021/01/31 00:46:01;;;;;;;12.07;8.73;;;-1.00;99.90;;;;;;4953487;28;20909;-75
2021/01/31 00:48:29;;;;;;;12.33;8.07;;;-1.00;99.90;;;;;;4938939;28;20250;-75
2021/01/31 00:50:55;;;;;;;10.60;8.60;;;-0.90;99.90;;;;;;4955077;28;20412;-75
2021/01/31 00:53:23;;;;;;;14.60;8.73;;;-1.00;99.90;;;;;;4941934;28;20492;-75
2021/01/31 00:55:49;;;;;;;10.03;8.43;;;-1.00;99.90;;;;;;4938628;28;20418;-75
2021/01/31 00:58:14;;;;;;;10.63;8.13;;;-1.00;99.90;;;;;;4934575;28;20435;-75
2021/01/31 01:00:41;;;;;;;14.57;9.90;;;-0.90;99.90;;;;;;4948183;28;20213;-77
2021/01/31 01:03:35;;;;;;;11.93;9.70;;;-0.90;99.90;;;;;;4920463;29;20213;-75
2021/01/31 01:06:01;;;;;;;10.77;7.67;;;-0.90;99.90;;;;;;4893702;29;20413;-75
2021/01/31 01:08:26;;;;;;;11.57;8.93;;;-1.00;99.90;;;;;;4897248;29;20437;-75
2021/01/31 01:11:18;;;;;;;11.40;8.97;;;-1.10;99.90;;;;;;4909813;28;20436;-75
2021/01/31 01:13:45;;;;;;;11.20;7.60;;;-1.10;99.90;;;;;;4928261;28;20264;-75
2021/01/31 01:16:11;;;;;;;13.77;8.67;;;-1.10;99.90;;;;;;4936039;28;20406;-75
2021/01/31 01:18:39;;;;;;;10.90;7.30;;;-1.20;99.90;;;;;;4939634;28;20478;-75
2021/01/31 01:21:06;;;;;;;14.50;10.23;;;-1.20;99.90;;;;;;4925935;28;20673;-75
2021/01/31 01:23:32;;;;;;;14.50;8.83;;;-1.10;99.90;;;;;;4927536;28;20400;-75
2021/01/31 01:26:00;;;;;;;11.33;8.57;;;-1.10;99.90;;;;;;4921237;28;20611;-75
2021/01/31 01:28:26;;;;;;;17.93;9.70;;;-1.10;99.90;;;;;;4954864;28;20400;-75
2021/01/31 01:30:52;;;;;;;11.20;8.50;;;-1.10;99.90;;;;;;4922081;28;20458;-75
2021/01/31 01:33:18;;;;;;;10.67;8.30;;;-1.10;99.90;;;;;;4939160;28;20471;-75
2021/01/31 01:35:44;;;;;;;14.47;8.77;;;-1.10;99.90;;;;;;4919258;28;20838;-75
2021/01/31 01:38:11;;;;;;;11.70;7.90;;;-1.10;99.90;;;;;;4951528;28;20288;-75
2021/01/31 01:40:39;;;;;;;11.20;7.83;;;-1.10;99.90;;;;;;4932871;28;20403;-74
2021/01/31 01:43:14;;;;;;;10.47;7.80;;;-1.10;99.90;;;;;;4970211;28;20375;-74
2021/01/31 01:45:39;;;;;;;15.23;8.20;;;-1.10;99.90;;;;;;4975646;28;20418;-75
2021/01/31 01:48:14;;;;;;;10.10;8.07;;;-1.10;99.90;;;;;;5001478;28;21173;-75
2021/01/31 01:50:49;;;;;;;10.77;7.97;;;-1.10;99.90;;;;;;5022568;28;20265;-75
2021/01/31 01:53:17;;;;;;;12.83;8.17;;;-1.20;99.90;;;;;;5032777;28;20396;-75
2021/01/31 01:55:59;;;;;;;12.80;9.00;;;-1.20;99.90;;;;;;5033705;28;20831;-75
2021/01/31 01:58:28;;;;;;;11.67;8.20;;;-1.30;99.90;;;;;;5034409;28;20446;-75
2021/01/31 02:00:57;;;;;;;13.57;9.23;;;-1.30;99.90;;;;;;5032538;28;20823;-75
2021/01/31 02:03:47;;;;;;;10.77;7.87;;;-1.30;99.90;;;;;;5022247;28;20398;-75
2021/01/31 02:06:23;;;;;;;10.27;7.63;;;-1.40;99.90;;;;;;4992044;28;20500;-75
2021/01/31 02:08:49;;;;;;;11.67;7.90;;;-1.40;99.90;;;;;;4991601;28;20422;-74
2021/01/31 02:11:16;;;;;;;9.53;7.03;;;-1.50;99.90;;;;;;4943470;28;20505;-75
2021/01/31 02:13:47;;;;;;;17.47;9.43;;;-1.50;99.90;;;;;;4993519;28;20454;-75
2021/01/31 02:16:44;;;;;;;14.23;8.40;;;-1.60;99.90;;;;;;5002300;23;20526;-84
2021/01/31 02:19:38;;;;;;;10.63;8.77;;;-1.50;99.90;;;;;;5009595;28;20436;-84
2021/01/31 02:22:36;;;;;;;8.33;6.57;;;-1.60;99.90;;;;;;5008352;28;20460;-84
2021/01/31 02:25:26;;;;;;;13.00;9.00;;;-1.50;99.90;;;;;;5010537;28;20399;-85
2021/01/31 02:28:23;;;;;;;10.80;8.87;;;-1.60;99.90;;;;;;4995851;28;20985;-84
2021/01/31 02:31:23;;;;;;;11.10;7.90;;;-1.70;99.90;;;;;;5000192;28;20408;-84
2021/01/31 02:34:12;;;;;;;16.07;8.97;;;-1.70;99.90;;;;;;5015637;28;20387;-84
2021/01/31 02:36:54;;;;;;;10.03;6.90;;;-1.90;99.90;;;;;;5019016;28;20899;-84
2021/01/31 02:39:26;;;;;;;14.50;8.53;;;-1.90;99.90;;;;;;5008956;28;20410;-84
2021/01/31 02:42:23;;;;;;;13.43;8.80;;;-1.90;99.90;;;;;;5004519;28;20347;-85
2021/01/31 02:45:17;;;;;;;11.93;7.57;;;-2.00;99.90;;;;;;5013786;28;20523;-85
2021/01/31 02:48:01;;;;;;;13.20;8.67;;;-2.00;99.90;;;;;;4990127;28;20411;-84
2021/01/31 02:50:43;;;;;;;13.23;8.83;;;-1.90;99.90;;;;;;5008695;28;20416;-84
2021/01/31 02:53:26;;;;;;;10.57;7.33;;;-2.00;99.90;;;;;;5003165;28;20393;-84
2021/01/31 02:56:04;;;;;;;13.17;9.03;;;-2.10;99.90;;;;;;5000698;28;21095;-85
2021/01/31 02:58:37;;;;;;;14.00;8.20;;;-2.00;99.90;;;;;;5019407;28;20891;-85
2021/01/31 03:01:12;;;;;;;15.37;9.17;;;-2.10;99.90;;;;;;5012981;28;20452;-85
2021/01/31 03:03:42;;;;;;;13.23;8.93;;;-2.10;99.90;;;;;;5012613;28;20451;-85
2021/01/31 03:06:14;;;;;;;10.97;8.83;;;-2.20;99.90;;;;;;4997083;28;20422;-85
2021/01/31 03:08:59;;;;;;;13.73;8.37;;;-2.20;99.90;;;;;;5024298;28;20483;-84
2021/01/31 03:11:31;;;;;;;13.37;8.97;;;-2.20;99.90;;;;;;5025228;28;20411;-84
2021/01/31 03:14:02;;;;;;;13.53;8.40;;;-2.30;99.90;;;;;;5019847;28;20415;-84
2021/01/31 03:16:34;;;;;;;11.03;7.83;;;-2.20;99.90;;;;;;4997553;28;20519;-84
2021/01/31 03:19:12;;;;;;;15.23;10.80;;;-2.30;99.90;;;;;;5012992;28;20974;-84
2021/01/31 03:21:42;;;;;;;11.50;7.93;;;-2.30;99.90;;;;;;5016867;28;20410;-84
2021/01/31 03:24:20;;;;;;;12.00;8.47;;;-2.40;99.90;;;;;;5024230;28;20807;-84
2021/01/31 03:26:58;;;;;;;13.93;9.03;;;-2.40;99.90;;;;;;5000919;28;20408;-84
2021/01/31 03:29:24;;;;;;;12.57;8.30;;;-2.50;99.90;;;;;;5011566;28;20358;-85
2021/01/31 03:31:57;;;;;;;14.57;9.47;;;-2.40;99.90;;;;;;5008259;28;20608;-85
2021/01/31 03:34:30;;;;;;;15.57;8.80;;;-2.50;99.90;;;;;;5003900;28;21198;-85
2021/01/31 03:37:01;;;;;;;11.70;8.77;;;-2.40;99.90;;;;;;5001538;28;20635;-85
2021/01/31 03:39:28;;;;;;;16.10;9.93;;;-2.40;99.90;;;;;;5019048;28;20480;-85
2021/01/31 03:41:55;;;;;;;15.87;9.20;;;-2.40;99.90;;;;;;5034438;28;20960;-85
2021/01/31 03:44:21;;;;;;;15.90;9.47;;;-2.40;99.90;;;;;;5032675;28;22941;-85
2021/01/31 03:46:59;;;;;;;14.33;8.90;;;-2.40;99.90;;;;;;5001954;28;20471;-84
2021/01/31 03:49:32;;;;;;;17.50;9.13;;;-2.50;99.90;;;;;;5033888;28;20367;-84
2021/01/31 03:51:58;;;;;;;15.20;10.00;;;-2.40;99.90;;;;;;5006008;28;20391;-84
2021/01/31 03:54:25;;;;;;;15.43;10.27;;;-2.50;99.90;;;;;;4978442;28;21286;-84
2021/01/31 03:57:18;;;;;;;15.13;9.43;;;-2.70;99.90;;;;;;5008030;28;20980;-84
2021/01/31 03:59:55;;;;;;;14.37;9.50;;;-2.70;99.90;;;;;;5021738;28;20397;-84
2021/01/31 04:02:27;;;;;;;14.63;9.80;;;-2.60;99.90;;;;;;5019339;28;20469;-84
2021/01/31 04:04:54;;;;;;;16.70;9.47;;;-2.60;99.90;;;;;;5024097;28;20395;-84
2021/01/31 04:07:24;;;;;;;15.03;9.50;;;-2.70;99.90;;;;;;5005436;28;20419;-84
2021/01/31 04:09:51;;;;;;;13.83;9.40;;;-2.70;99.90;;;;;;5021086;28;20456;-84
2021/01/31 04:12:22;;;;;;;19.77;11.43;;;-2.80;99.90;;;;;;5007822;28;20370;-84
2021/01/31 04:14:56;;;;;;;16.97;9.30;;;-2.80;99.90;;;;;;5001238;28;20401;-84
2021/01/31 04:17:22;;;;;;;13.30;9.47;;;-2.70;99.90;;;;;;5006597;28;20466;-84
2021/01/31 04:19:50;;;;;;;16.53;10.13;;;-2.70;99.90;;;;;;5004811;28;20541;-84
2021/01/31 04:22:17;;;;;;;15.27;9.53;;;-2.70;99.90;;;;;;4990125;28;20407;-84
2021/01/31 04:24:42;;;;;;;15.47;10.80;;;-2.70;99.90;;;;;;5005409;28;20875;-84
2021/01/31 04:27:08;;;;;;;13.10;9.43;;;-2.60;99.90;;;;;;4995420;28;20527;-85
2021/01/31 04:29:36;;;;;;;14.40;8.97;;;-2.60;99.90;;;;;;5009441;28;20329;-84
2021/01/31 04:32:03;;;;;;;13.13;8.77;;;-2.60;99.90;;;;;;5011302;28;20411;-85
2021/01/31 04:34:28;;;;;;;16.40;9.03;;;-2.70;99.90;;;;;;5007500;28;20354;-84
2021/01/31 04:36:54;;;;;;;16.20;10.07;;;-2.70;99.90;;;;;;5020541;28;20448;-84
2021/01/31 04:39:21;;;;;;;14.23;10.20;;;-2.70;99.90;;;;;;5018689;28;20568;-85
2021/01/31 04:41:47;;;;;;;14.23;9.97;;;-2.70;99.90;;;;;;4986597;28;20214;-84
2021/01/31 04:44:17;;;;;;;16.93;9.40;;;-2.80;99.90;;;;;;4978084;28;20444;-84
2021/01/31 04:47:09;;;;;;;17.83;10.40;;;-2.80;99.90;;;;;;5011259;28;20470;-85
2021/01/31 04:49:53;;;;;;;16.57;9.97;;;-2.80;99.90;;;;;;4991244;28;20359;-84
2021/01/31 04:52:49;;;;;;;12.27;8.73;;;-2.80;99.90;;;;;;5025791;28;20423;-84
2021/01/31 04:55:46;;;;;;;13.70;8.30;;;-2.90;99.90;;;;;;5004141;28;20351;-84
2021/01/31 04:58:17;;;;;;;11.30;9.17;;;-2.90;99.90;;;;;;5040636;28;20394;-84
2021/01/31 05:00:54;;;;;;;16.03;9.13;;;-3.10;99.90;;;;;;4999887;28;20557;-85
2021/01/31 05:03:22;;;;;;;17.47;9.93;;;-3.10;99.90;;;;;;5038813;28;20388;-85
2021/01/31 05:06:06;;;;;;;15.53;9.67;;;-3.00;99.90;;;;;;5015636;28;21263;-85
2021/01/31 05:08:33;;;;;;;26.63;8.80;;;-3.10;99.90;;;;;;4991859;28;20395;-85
2021/01/31 05:11:15;;;;;;;13.33;9.20;;;-3.00;99.90;;;;;;5005240;28;20453;-84
2021/01/31 05:14:14;;;;;;;15.13;9.10;;;-3.10;99.90;;;;;;5006845;28;20513;-84
2021/01/31 05:16:40;;;;;;;17.23;8.47;;;-3.10;99.90;;;;;;4968191;28;20888;-84
2021/01/31 05:19:12;;;;;;;13.00;8.37;;;-3.10;99.90;;;;;;5004106;28;20445;-84
2021/01/31 05:21:38;;;;;;;18.23;11.00;;;-3.10;99.90;;;;;;5010918;28;20363;-85
2021/01/31 05:24:16;;;;;;;14.70;9.97;;;-3.10;99.90;;;;;;4990859;28;20394;-85
2021/01/31 05:26:48;;;;;;;15.90;10.10;;;-3.10;99.90;;;;;;5020100;28;20414;-85
2021/01/31 05:29:28;;;;;;;14.10;10.27;;;-3.10;99.90;;;;;;5021109;28;20417;-85
2021/01/31 05:32:10;;;;;;;11.63;9.93;;;-3.10;99.90;;;;;;5007528;28;20389;-85
2021/01/31 05:34:39;;;;;;;15.17;9.50;;;-3.30;99.90;;;;;;5018983;28;20363;-85
2021/01/31 05:37:27;;;;;;;24.20;10.37;;;-3.30;99.90;;;;;;5017842;28;20357;-85
2021/01/31 05:40:31;;;;;;;14.70;9.50;;;-3.40;99.90;;;;;;5015865;28;21322;-85
2021/01/31 05:42:58;;;;;;;14.23;9.60;;;-3.40;99.90;;;;;;4962962;28;20468;-85
2021/01/31 05:45:23;;;;;;;16.33;9.80;;;-3.30;99.90;;;;;;4946786;28;21252;-85
2021/01/31 05:47:50;;;;;;;14.13;9.70;;;-3.30;99.90;;;;;;4960123;28;20405;-85
2021/01/31 05:50:40;;;;;;;17.67;10.70;;;-3.40;99.90;;;;;;4942783;28;20204;-85
2021/01/31 05:53:24;;;;;;;16.40;9.70;;;-3.40;99.90;;;;;;4940483;28;20467;-85
2021/01/31 05:55:50;;;;;;;16.37;10.13;;;-3.40;99.90;;;;;;4944730;28;20422;-85
2021/01/31 05:58:22;;;;;;;19.53;10.00;;;-3.40;99.90;;;;;;4946886;28;21106;-85
2021/01/31 06:01:05;;;;;;;14.77;9.47;;;-3.30;99.90;;;;;;4945740;28;20848;-85
2021/01/31 06:03:31;;;;;;;14.43;10.27;;;-3.50;99.90;;;;;;4955984;28;20926;-85
2021/01/31 06:06:35;;;;;;;13.70;9.43;;;-3.50;99.90;;;;;;4932930;28;20487;-85
2021/01/31 06:09:33;;;;;;;15.90;9.40;;;-3.60;99.90;;;;;;4876182;29;20215;-85
2021/01/31 06:12:19;;;;;;;12.60;9.07;;;-3.60;99.90;;;;;;4900020;29;20400;-85
2021/01/31 06:14:49;;;;;;;21.77;12.07;;;-3.60;99.90;;;;;;4880220;29;20468;-85
2021/01/31 06:17:25;;;;;;;18.10;10.83;;;-3.60;99.90;;;;;;4904426;29;20426;-85
2021/01/31 06:20:01;;;;;;;17.27;9.17;;;-3.50;99.90;;;;;;4946056;28;20456;-85
2021/01/31 06:22:59;;;;;;;13.80;9.37;;;-3.60;99.90;;;;;;4951952;28;20433;-85
2021/01/31 06:25:28;;;;;;;18.47;10.03;;;-3.60;99.90;;;;;;4885417;29;20416;-85
2021/01/31 06:28:10;;;;;;;17.40;10.53;;;-3.60;99.90;;;;;;4905890;29;20419;-85
2021/01/31 06:30:49;;;;;;;15.70;10.40;;;-3.60;99.90;;;;;;4872799;29;20422;-85
2021/01/31 06:33:15;;;;;;;15.87;10.60;;;-3.40;99.90;;;;;;4863248;29;20582;-85
2021/01/31 06:35:42;;;;;;;23.40;10.67;;;-3.40;99.90;;;;;;4880875;29;20525;-86
2021/01/31 06:38:50;;;;;;;18.00;9.93;;;-3.40;99.90;;;;;;4869165;29;21239;-85
2021/01/31 06:41:43;;;;;;;15.03;10.00;;;-3.50;99.90;;;;;;4952165;28;20370;-85
2021/01/31 06:44:28;;;;;;;15.47;9.97;;;-3.50;99.90;;;;;;4920856;28;20520;-85
2021/01/31 06:47:18;;;;;;;17.60;10.03;;;-3.60;99.90;;;;;;4936724;28;20751;-85
2021/01/31 06:50:18;;;;;;;19.10;10.10;;;-3.50;99.90;;;;;;4919812;28;20385;-85
2021/01/31 06:53:15;;;;;;;16.20;10.27;;;-3.40;99.90;;;;;;4904443;28;21268;-85
2021/01/31 06:55:49;;;;;;;14.87;10.57;;;-3.50;99.90;;;;;;4913142;28;20396;-85
2021/01/31 06:58:30;;;;;;;19.57;11.50;;;-3.70;99.90;;;;;;4941068;28;20396;-85
2021/01/31 07:01:28;;;;;;;14.57;9.80;;;-3.70;99.90;;;;;;4950251;28;21046;-85
2021/01/31 07:04:30;;;;;;;17.33;11.17;;;-3.80;99.90;;;;;;4997914;28;21017;-85
2021/01/31 07:07:20;;;;;;;13.87;10.33;;;-3.90;99.90;;;;;;4992623;28;21152;-85
2021/01/31 07:10:17;;;;;;;19.30;11.17;;;-4.00;99.90;;;;;;4995951;28;20409;-85
2021/01/31 07:13:24;;;;;;;21.53;11.07;;;-4.20;99.90;;;;;;4993596;28;20408;-85
2021/01/31 07:16:10;;;;;;;18.07;10.90;;;-4.10;99.90;;;;;;4948882;28;20440;-85
2021/01/31 07:18:44;;;;;;;17.77;11.20;;;-4.00;99.90;;;;;;5011267;28;20519;-85
2021/01/31 07:21:19;;;;;;;18.30;12.03;;;-3.90;99.90;;;;;;4991603;28;20389;-85
2021/01/31 07:23:46;;;;;;;18.53;10.37;;;-3.90;99.90;;;;;;4994175;28;21208;-85
2021/01/31 07:26:15;;;;;;;17.97;10.50;;;-3.80;99.90;;;;;;4959721;28;20392;-84
2021/01/31 07:28:41;;;;;;;17.67;11.43;;;-3.80;99.90;;;;;;4988778;28;20433;-85
2021/01/31 07:31:49;;;;;;;21.87;11.47;;;-3.70;99.90;;;;;;5015771;28;20413;-85
2021/01/31 07:34:29;;;;;;;19.87;12.43;;;-3.60;99.90;;;;;;4954523;28;20450;-84
2021/01/31 07:37:13;;;;;;;18.50;11.80;;;-3.50;99.90;;;;;;4955932;28;20467;-85
2021/01/31 07:39:53;;;;;;;20.10;11.50;;;-3.50;99.90;;;;;;4974345;28;20401;-85
2021/01/31 07:42:21;;;;;;;24.00;11.80;;;-3.40;99.90;;;;;;4956340;28;20414;-85
2021/01/31 07:44:53;;;;;;;20.47;11.13;;;-3.40;99.90;;;;;;4941138;28;20361;-84
2021/01/31 07:47:22;;;;;;;16.20;11.97;;;-3.40;99.90;;;;;;4971356;28;20411;-84
2021/01/31 07:49:54;;;;;;;20.67;11.27;;;-3.30;99.90;;;;;;4959196;28;20523;-85
2021/01/31 07:52:22;;;;;;;22.27;13.27;;;-3.30;99.90;;;;;;4954617;28;20514;-85
2021/01/31 07:54:47;;;;;;;19.33;11.63;;;-3.30;99.90;;;;;;4976162;28;21035;-85
2021/01/31 07:57:37;;;;;;;21.43;11.50;;;-3.20;99.90;;;;;;4952362;28;20554;-85
2021/01/31 08:00:15;;;;;;;19.60;11.70;;;-3.10;99.90;;;;;;4943574;28;20215;-85
2021/01/31 08:02:45;;;;;;;18.80;11.40;;;-3.00;99.90;;;;;;4959253;28;20433;-85
2021/01/31 08:05:14;;;;;;;21.00;12.07;;;-2.50;99.90;;;;;;5008793;28;20382;-85
2021/01/31 08:08:07;;;;;;;23.63;12.03;;;-1.60;99.90;;;;;;5004399;28;20457;-85
2021/01/31 08:10:50;;;;;;;15.50;11.23;;;-0.80;99.90;;;;;;4999238;28;20410;-85
2021/01/31 08:13:36;;;;;;;18.30;13.20;;;-0.10;99.90;;;;;;4978061;28;20420;-85
2021/01/31 08:16:40;;;;;;;22.30;12.43;;;0.60;99.90;;;;;;4989813;28;21245;-85
2021/01/31 08:19:09;;;;;;;19.47;11.10;;;0.60;99.90;;;;;;5015237;28;20390;-85
2021/01/31 08:21:55;;;;;;;18.80;12.63;;;1.20;99.90;;;;;;5010931;28;20416;-85
2021/01/31 08:24:58;;;;;;;20.83;12.30;;;1.90;99.90;;;;;;4995833;28;20748;-85
2021/01/31 08:27:42;;;;;;;17.40;10.87;;;2.10;99.90;;;;;;4995795;28;20406;-85
2021/01/31 08:30:33;;;;;;;20.53;13.50;;;3.10;99.90;;;;;;4994510;28;20898;-86
2021/01/31 08:32:58;;;;;;;19.13;11.47;;;4.90;99.90;;;;;;5004103;28;20555;-86
2021/01/31 08:35:42;;;;;;;15.80;10.43;;;6.70;99.90;;;;;;5002269;28;20411;-85
2021/01/31 08:38:16;;;;;;;15.33;10.07;;;8.00;99.90;;;;;;5010556;28;20207;-85
2021/01/31 08:41:00;;;;;;;16.90;11.63;;;8.90;99.90;;;;;;5006979;28;20832;-85
2021/01/31 08:43:27;;;;;;;15.37;9.77;;;10.30;99.90;;;;;;5010707;28;20899;-86
2021/01/31 08:46:01;;;;;;;14.70;9.23;;;10.90;99.90;;;;;;4991820;28;20598;-86
2021/01/31 08:48:27;;;;;;;12.47;9.00;;;10.00;98.50;;;;;;5000522;28;20396;-86
2021/01/31 08:51:07;;;;;;;14.10;9.60;;;9.40;99.90;;;;;;4982168;28;20445;-86
2021/01/31 08:53:36;;;;;;;12.60;9.70;;;10.20;99.90;;;;;;5014626;28;20211;-86
2021/01/31 08:56:26;;;;;;;14.10;9.50;;;10.50;96.40;;;;;;4992973;28;20418;-86
2021/01/31 08:58:52;;;;;;;13.00;9.90;;;9.50;96.00;;;;;;5016425;28;20393;-86
2021/01/31 09:01:18;;;;;;;14.57;10.40;;;8.60;97.70;;;;;;4981702;28;20425;-85
2021/01/31 09:03:45;;;;;;;15.80;10.60;;;8.50;98.80;;;;;;4999179;28;21453;-85
2021/01/31 09:06:11;;;;;;;16.10;10.07;;;7.90;99.90;;;;;;5010807;28;20218;-85
2021/01/31 09:08:41;;;;;;;11.00;8.10;;;7.70;99.90;;;;;;4993490;28;21226;-85
2021/01/31 09:11:09;;;;;;;11.00;9.50;;;7.20;99.90;;;;;;5011396;28;20397;-85
2021/01/31 09:13:35;;;;;;;12.30;9.00;;;6.80;99.90;;;;;;4996797;28;20434;-85
2021/01/31 09:16:24;;;;;;;13.00;8.67;;;6.80;99.90;;;;;;4990331;28;20707;-85
2021/01/31 09:19:17;;;;;;;14.57;9.70;;;8.10;99.90;;;;;;4992251;28;20749;-86
2021/01/31 09:21:44;;;;;;;14.37;10.10;;;8.90;98.50;;;;;;4995987;28;20418;-85
2021/01/31 09:24:15;;;;;;;11.57;9.43;;;8.20;98.80;;;;;;5008451;28;20414;-85
2021/01/31 09:26:52;;;;;;;16.03;10.00;;;8.10;98.90;;;;;;5006481;28;21269;-85
2021/01/31 09:29:22;;;;;;;13.97;9.60;;;8.60;98.40;;;;;;5012926;28;20425;-86
2021/01/31 09:31:58;;;;;;;11.50;8.23;;;8.40;97.30;;;;;;4995701;28;20409;-85
2021/01/31 09:34:26;;;;;;;12.07;9.20;;;8.80;97.30;;;;;;4995384;28;20424;-85
2021/01/31 09:37:06;;;;;;;14.37;10.57;;;8.50;96.40;;;;;;4993522;28;20457;-85
2021/01/31 09:39:34;;;;;;;12.97;9.90;;;9.00;96.50;;;;;;4992231;28;21036;-85
2021/01/31 09:42:05;;;;;;;12.60;9.60;;;10.60;93.00;;;;;;4985859;28;20445;-85
2021/01/31 09:44:36;;;;;;;12.63;9.13;;;11.40;88.10;;;;;;5007364;28;20417;-85
2021/01/31 09:47:04;;;;;;;10.73;7.97;;;11.50;83.50;;;;;;5012313;28;20393;-85
2021/01/31 09:49:31;;;;;;;10.63;8.70;;;12.00;81.30;;;;;;5014837;28;20464;-84
2021/01/31 09:52:08;;;;;;;10.90;8.13;;;12.60;77.40;;;;;;4998146;28;20468;-85
2021/01/31 09:54:35;;;;;;;13.03;10.00;;;13.60;73.60;;;;;;5013356;28;20427;-85
2021/01/31 09:57:05;;;;;;;10.63;8.70;;;14.20;69.10;;;;;;4981070;28;20433;-85
2021/01/31 09:59:34;;;;;;;12.30;9.97;;;14.70;65.10;;;;;;4991427;28;20552;-85
2021/01/31 10:02:05;;;;;;;12.00;9.13;;;13.30;63.00;;;;;;5013037;28;20504;-85
2021/01/31 10:04:32;;;;;;;12.63;9.90;;;12.00;64.80;;;;;;5010142;28;20906;-84
2021/01/31 10:07:12;;;;;;;10.20;9.17;;;12.30;66.90;;;;;;5002570;28;20421;-85
2021/01/31 10:09:47;;;;;;;16.23;9.60;;;12.80;66.60;;;;;;5008637;28;20455;-84
2021/01/31 10:12:12;;;;;;;13.67;9.30;;;12.00;65.50;;;;;;4984534;28;20912;-84
2021/01/31 10:14:47;;;;;;;11.07;8.60;;;12.60;66.30;;;;;;5000598;28;21048;-84
2021/01/31 10:17:17;;;;;;;10.77;9.07;;;13.80;64.20;;;;;;5004468;28;20231;-83
2021/01/31 10:19:44;;;;;;;12.00;9.30;;;14.10;62.60;;;;;;5019945;28;20421;-83
2021/01/31 10:22:25;;;;;;;14.10;9.57;;;14.60;59.90;;;;;;5012439;28;20491;-84
2021/01/31 10:24:52;;;;;;;13.60;9.13;;;15.10;58.10;;;;;;5006171;28;20428;-84
2021/01/31 10:27:25;;;;;;;10.17;8.60;;;15.30;57.70;;;;;;5008227;28;20400;-84
2021/01/31 10:29:53;;;;;;;12.07;8.97;;;14.60;56.50;;;;;;5022561;28;20420;-84
2021/01/31 10:32:23;;;;;;;10.90;8.43;;;15.60;56.60;;;;;;5021849;28;20378;-84
2021/01/31 10:34:49;;;;;;;13.77;9.33;;;16.00;55.20;;;;;;5015034;28;20416;-84
2021/01/31 10:37:19;;;;;;;13.43;9.50;;;15.90;54.10;;;;;;4998625;28;20926;-84
2021/01/31 10:39:46;;;;;;;10.50;8.30;;;15.50;53.60;;;;;;5011771;28;20930;-84
2021/01/31 10:42:13;;;;;;;11.07;8.70;;;15.00;53.20;;;;;;5004824;28;20386;-84
2021/01/31 10:44:41;;;;;;;12.30;9.10;;;14.50;53.70;;;;;;5002907;28;20424;-84
2021/01/31 10:47:08;;;;;;;9.90;7.97;;;13.40;53.30;;;;;;4988606;28;20437;-84
2021/01/31 10:49:36;;;;;;;10.27;8.23;;;14.30;54.20;;;;;;4990154;28;21137;-84
2021/01/31 10:52:02;;;;;;;12.20;9.23;;;13.70;53.80;;;;;;4989907;28;20382;-83
2021/01/31 10:54:27;;;;;;;10.63;8.93;;;13.20;53.80;;;;;;5022823;28;20531;-84
2021/01/31 10:56:54;;;;;;;10.90;8.30;;;13.50;55.20;;;;;;5004325;28;20428;-84
2021/01/31 10:59:21;;;;;;;11.53;7.83;;;12.90;55.60;;;;;;4975224;28;20278;-84
2021/01/31 11:01:48;;;;;;;12.00;10.00;;;12.90;55.40;;;;;;5008084;28;20488;-83
2021/01/31 11:04:16;;;;;;;13.50;10.57;;;12.00;55.40;;;;;;5024486;28;20421;-84
2021/01/31 11:06:44;;;;;;;13.40;9.13;;;11.60;56.20;;;;;;4996283;28;21089;-84
2021/01/31 11:09:10;;;;;;;12.50;9.00;;;12.40;57.50;;;;;;5026105;28;20467;-84
2021/01/31 11:11:37;;;;;;;12.27;9.50;;;12.60;56.70;;;;;;4987238;28;20417;-84
2021/01/31 11:14:03;;;;;;;12.90;9.77;;;11.60;56.20;;;;;;5013634;28;20438;-84
2021/01/31 11:16:29;;;;;;;13.83;9.70;;;10.40;57.60;;;;;;4984419;28;20414;-84
2021/01/31 11:18:55;;;;;;;10.60;8.83;;;10.00;59.70;;;;;;4992815;28;20431;-84
2021/01/31 11:21:23;;;;;;;13.97;8.27;;;10.40;60.80;;;;;;4998830;28;20212;-84
2021/01/31 11:23:53;;;;;;;14.57;9.30;;;10.60;60.40;;;;;;5019914;28;20290;-84
2021/01/31 11:26:19;;;;;;;11.03;7.73;;;11.10;60.30;;;;;;4994576;28;20425;-84
2021/01/31 11:28:44;;;;;;;10.70;8.60;;;11.40;59.70;;;;;;5002667;28;20912;-84
2021/01/31 11:31:33;;;;;;;11.03;8.60;;;11.30;59.30;;;;;;5002193;28;20421;-83
2021/01/31 11:34:00;;;;;;;11.47;9.20;;;11.40;59.30;;;;;;4946185;28;20221;-83
2021/01/31 11:36:25;;;;;;;11.73;8.60;;;12.40;59.20;;;;;;4929966;28;20404;-84
2021/01/31 11:38:51;;;;;;;9.07;7.50;;;13.40;57.20;;;;;;4931919;28;20451;-83
2021/01/31 11:41:18;;;;;;;12.13;8.40;;;14.10;55.80;;;;;;4946731;28;20251;-83
2021/01/31 11:43:45;;;;;;;11.53;9.20;;;14.10;54.80;;;;;;4950655;28;20652;-83
2021/01/31 11:46:11;;;;;;;10.50;7.87;;;14.10;53.70;;;;;;4911186;28;20430;-84
2021/01/31 11:48:37;;;;;;;11.77;8.00;;;14.00;53.70;;;;;;4912893;28;20442;-84
2021/01/31 11:51:03;;;;;;;10.43;8.67;;;13.70;53.10;;;;;;4933577;28;20212;-84
2021/01/31 11:53:30;;;;;;;8.87;7.50;;;12.60;53.50;;;;;;4927972;28;20435;-84
2021/01/31 11:55:56;;;;;;;10.47;7.73;;;12.90;54.30;;;;;;4912705;28;20466;-84
2021/01/31 11:58:22;;;;;;;10.53;6.30;;;13.50;54.50;;;;;;4932820;28;20478;-84
2021/01/31 12:00:50;;;;;;;10.43;6.80;;;13.90;53.80;;;;;;4929261;28;20205;-84
2021/01/31 12:03:15;;;;;;;9.67;7.33;;;14.50;51.80;;;;;;4928762;28;20482;-83
2021/01/31 12:05:41;;;;;;;10.67;8.20;;;14.50;51.80;;;;;;4926770;28;20448;-84
2021/01/31 12:08:08;;;;;;;11.70;7.43;;;14.30;51.20;;;;;;4960412;28;20216;-84
2021/01/31 12:10:33;;;;;;;10.37;8.47;;;15.00;51.30;;;;;;4962448;28;20245;-84
2021/01/31 12:13:00;;;;;;;11.27;7.60;;;15.20;50.80;;;;;;4983262;28;20461;-84
2021/01/31 12:15:26;;;;;;;8.60;7.20;;;15.60;50.00;;;;;;5017872;28;20231;-84
2021/01/31 12:17:52;;;;;;;8.83;6.80;;;15.90;49.20;;;;;;4983448;28;20441;-84
2021/01/31 12:20:18;;;;;;;10.53;7.60;;;16.40;48.50;;;;;;4984429;28;20461;-84
2021/01/31 12:22:44;;;;;;;9.60;8.10;;;15.90;48.00;;;;;;5008612;28;20237;-84
2021/01/31 12:25:13;;;;;;;7.00;6.33;;;15.70;48.00;;;;;;4993588;28;20410;-84
2021/01/31 12:27:40;;;;;;;11.23;7.73;;;15.10;48.00;;;;;;5015705;28;20424;-84
2021/01/31 12:30:07;;;;;;;8.67;7.07;;;14.90;49.00;;;;;;5004651;28;20500;-85
2021/01/31 12:32:34;;;;;;;9.30;7.57;;;14.90;48.20;;;;;;5009120;28;20500;-85
2021/01/31 12:35:00;;;;;;;8.27;7.40;;;14.40;48.30;;;;;;5000033;28;20422;-84
2021/01/31 12:37:28;;;;;;;11.13;8.60;;;13.80;49.30;;;;;;4986043;28;20441;-84
2021/01/31 12:39:55;;;;;;;11.30;8.60;;;14.20;49.90;;;;;;5017769;28;21265;-84
2021/01/31 12:42:23;;;;;;;9.17;7.67;;;13.90;49.80;;;;;;5006988;28;20412;-84
2021/01/31 12:44:49;;;;;;;11.70;8.40;;;14.50;50.10;;;;;;5019609;28;20417;-84
2021/01/31 12:47:15;;;;;;;11.40;8.23;;;13.50;49.10;;;;;;4984982;28;20429;-84
2021/01/31 12:50:04;;;;;;;10.73;8.17;;;13.80;50.40;;;;;;4997721;28;20536;-85
2021/01/31 12:52:30;;;;;;;14.53;8.00;;;13.60;50.40;;;;;;4998825;28;20402;-83
2021/01/31 12:54:56;;;;;;;9.77;7.53;;;13.60;50.50;;;;;;4966514;28;20422;-83
2021/01/31 12:57:22;;;;;;;9.17;7.57;;;13.50;50.50;;;;;;4980840;28;20235;-84
2021/01/31 12:59:47;;;;;;;12.17;8.73;;;12.40;50.40;;;;;;4980448;28;20214;-83
2021/01/31 13:02:13;;;;;;;10.93;8.10;;;12.00;52.30;;;;;;4972506;28;20247;-84
2021/01/31 13:04:41;;;;;;;11.03;8.77;;;12.40;53.20;;;;;;4993656;28;20276;-84
2021/01/31 13:07:07;;;;;;;9.97;8.33;;;12.30;53.10;;;;;;4982688;28;20211;-84
2021/01/31 13:09:33;;;;;;;9.80;8.03;;;12.20;53.30;;;;;;4982422;28;20430;-86